createdAt,value
2023-01-05T00:00:37.584Z,24.48
2023-01-05T00:02:42.234Z,24.48
2023-01-05T00:04:46.825Z,24.48
2023-01-05T00:06:51.143Z,24.47
2023-01-05T00:08:55.484Z,24.47
2023-01-05T00:10:59.884Z,24.46
2023-01-05T00:13:04.346Z,24.45
2023-01-05T00:15:08.707Z,24.45
2023-01-05T00:17:13.061Z,24.44
2023-01-05T00:19:17.414Z,24.42
2023-01-05T00:21:21.875Z,24.41
2023-01-05T00:23:26.233Z,24.41
2023-01-05T00:25:30.575Z,24.39
2023-01-05T00:27:35.029Z,24.38
2023-01-05T00:29:39.395Z,24.37
2023-01-05T00:31:43.736Z,24.37
2023-01-05T00:33:48.376Z,24.34
2023-01-05T00:35:52.800Z,24.35
2023-01-05T00:37:57.154Z,24.33
2023-01-05T00:40:01.504Z,24.33
2023-01-05T00:42:05.891Z,24.31
2023-01-05T00:44:10.308Z,24.29
2023-01-05T00:46:14.636Z,24.3
2023-01-05T00:48:19.371Z,24.3
2023-01-05T00:50:23.755Z,24.28
2023-01-05T00:52:28.258Z,24.28
2023-01-05T00:54:32.700Z,24.26
2023-01-05T00:56:37.072Z,24.26
2023-01-05T00:58:41.415Z,24.25
2023-01-05T01:00:47.800Z,24.25
2023-01-05T01:02:52.538Z,24.24
2023-01-05T01:04:57.046Z,24.25
2023-01-05T01:07:01.430Z,24.24
2023-01-05T01:09:05.886Z,24.24
2023-01-05T01:11:10.267Z,24.24
2023-01-05T01:13:14.627Z,24.23
2023-01-05T01:15:18.934Z,24.22
2023-01-05T01:17:23.341Z,24.22
2023-01-05T01:19:27.647Z,24.19
2023-01-05T01:21:31.967Z,24.2
2023-01-05T01:23:36.307Z,24.2
2023-01-05T01:25:40.623Z,24.19
2023-01-05T01:27:44.944Z,24.18
2023-01-05T01:29:49.294Z,24.18
2023-01-05T01:31:53.855Z,24.18
2023-01-05T01:33:58.343Z,24.19
2023-01-05T01:36:02.653Z,24.19
2023-01-05T01:38:07.012Z,24.2
2023-01-05T01:40:11.358Z,24.18
2023-01-05T01:42:15.699Z,24.18
2023-01-05T01:44:20.055Z,24.18
2023-01-05T01:46:24.524Z,24.18
2023-01-05T01:48:29.019Z,24.18
2023-01-05T01:50:33.380Z,24.18
2023-01-05T01:52:37.814Z,24.18
2023-01-05T01:54:42.174Z,24.18
2023-01-05T01:56:46.535Z,24.17
2023-01-05T01:58:50.897Z,24.15
2023-01-05T02:00:55.268Z,24.16
2023-01-05T02:02:59.886Z,24.16
2023-01-05T02:05:04.230Z,24.15
2023-01-05T02:07:08.556Z,24.14
2023-01-05T02:09:13.001Z,24.13
2023-01-05T02:11:17.449Z,24.13
2023-01-05T02:13:24.990Z,24.13
2023-01-05T02:15:35.065Z,24.1
2023-01-05T02:17:39.375Z,24.1
2023-01-05T02:19:43.729Z,24.1
2023-01-05T02:21:48.044Z,24.1
2023-01-05T02:23:52.380Z,24.09
2023-01-05T02:25:56.724Z,24.09
2023-01-05T02:28:01.045Z,24.1
2023-01-05T02:30:05.384Z,24.1
2023-01-05T02:32:09.686Z,24.09
2023-01-05T02:34:14.036Z,24.09
2023-01-05T02:36:21.137Z,24.08
2023-01-05T02:38:32.221Z,24.07
2023-01-05T02:40:37.089Z,24.06
2023-01-05T02:42:41.416Z,24.07
2023-01-05T02:44:45.750Z,24.06
2023-01-05T02:46:50.117Z,24.05
2023-01-05T02:48:54.450Z,24.04
2023-01-05T02:50:58.821Z,24.03
2023-01-05T02:53:03.169Z,24.01
2023-01-05T02:55:07.491Z,23.98
2023-01-05T02:57:11.892Z,23.95
2023-01-05T02:59:16.299Z,23.95
2023-01-05T03:01:20.778Z,23.94
2023-01-05T03:03:25.710Z,23.93
2023-01-05T03:05:30.140Z,23.92
2023-01-05T03:07:34.508Z,23.91
2023-01-05T03:09:45.415Z,23.86
2023-01-05T03:11:49.755Z,23.87
2023-01-05T03:13:54.141Z,23.88
2023-01-05T03:15:58.503Z,23.88
2023-01-05T03:18:03.112Z,23.87
2023-01-05T03:20:07.557Z,23.84
2023-01-05T03:22:11.962Z,23.84
2023-01-05T03:24:16.303Z,23.83
2023-01-05T03:26:20.623Z,23.83
2023-01-05T03:28:24.940Z,23.8
2023-01-05T03:30:29.280Z,23.82
2023-01-05T03:32:35.154Z,23.78
2023-01-05T03:34:39.699Z,23.78
2023-01-05T03:36:44.036Z,23.75
2023-01-05T03:38:48.382Z,23.75
2023-01-05T03:40:52.728Z,23.73
2023-01-05T03:42:57.093Z,23.72
2023-01-05T03:45:01.469Z,23.71
2023-01-05T03:47:05.916Z,23.69
2023-01-05T03:49:10.249Z,23.69
2023-01-05T03:51:14.619Z,23.67
2023-01-05T03:53:19.041Z,23.66
2023-01-05T03:55:23.459Z,23.64
2023-01-05T03:57:27.820Z,23.63
2023-01-05T03:59:32.179Z,23.64
2023-01-05T04:01:36.713Z,23.62
2023-01-05T04:03:41.434Z,23.6
2023-01-05T04:05:45.971Z,23.6
2023-01-05T04:07:50.318Z,23.6
2023-01-05T04:09:54.684Z,23.58
2023-01-05T04:11:59.150Z,23.56
2023-01-05T04:14:03.494Z,23.56
2023-01-05T04:16:07.873Z,23.54
2023-01-05T04:18:12.566Z,23.53
2023-01-05T04:20:16.933Z,23.52
2023-01-05T04:22:26.907Z,23.52
2023-01-05T04:24:31.584Z,23.51
2023-01-05T04:26:35.938Z,23.51
2023-01-05T04:28:40.285Z,23.5
2023-01-05T04:30:44.645Z,23.5
2023-01-05T04:32:49.088Z,23.49
2023-01-05T04:34:53.423Z,23.49
2023-01-05T04:36:57.807Z,23.48
2023-01-05T04:39:02.192Z,23.47
2023-01-05T04:41:06.534Z,23.45
2023-01-05T04:43:10.946Z,23.45
2023-01-05T04:45:15.244Z,23.45
2023-01-05T04:47:19.614Z,23.43
2023-01-05T04:49:23.958Z,23.43
2023-01-05T04:51:28.289Z,23.41
2023-01-05T04:53:32.687Z,23.41
2023-01-05T04:55:37.085Z,23.38
2023-01-05T04:57:41.418Z,23.39
2023-01-05T04:59:45.736Z,23.37
2023-01-05T05:01:50.158Z,23.36
2023-01-05T05:03:54.957Z,23.36
2023-01-05T05:05:59.652Z,23.34
2023-01-05T05:08:04.336Z,23.33
2023-01-05T05:10:08.778Z,23.32
2023-01-05T05:12:13.131Z,23.31
2023-01-05T05:14:17.467Z,23.29
2023-01-05T05:16:21.832Z,23.29
2023-01-05T05:18:26.254Z,23.28
2023-01-05T05:20:30.579Z,23.27
2023-01-05T05:22:35.016Z,23.27
2023-01-05T05:24:39.330Z,23.27
2023-01-05T05:26:43.690Z,23.26
2023-01-05T05:28:48.029Z,23.25
2023-01-05T05:30:52.425Z,23.24
2023-01-05T05:32:56.899Z,23.24
2023-01-05T05:35:01.270Z,23.24
2023-01-05T05:37:05.608Z,23.23
2023-01-05T05:39:09.942Z,23.23
2023-01-05T05:41:14.276Z,23.22
2023-01-05T05:43:18.667Z,23.2
2023-01-05T05:45:23.115Z,23.2
2023-01-05T05:47:27.601Z,23.19
2023-01-05T05:49:31.949Z,23.16
2023-01-05T05:51:36.263Z,23.13
2023-01-05T05:53:40.611Z,23.17
2023-01-05T05:55:44.940Z,23.24
2023-01-05T05:57:49.261Z,23.34
2023-01-05T05:59:53.639Z,23.43
2023-01-05T06:01:58.140Z,23.51
2023-01-05T06:04:02.956Z,23.55
2023-01-05T06:06:07.379Z,23.59
2023-01-05T06:08:11.697Z,23.66
2023-01-05T06:10:16.075Z,23.73
2023-01-05T06:12:20.863Z,23.79
2023-01-05T06:14:25.338Z,23.83
2023-01-05T06:16:29.711Z,23.84
2023-01-05T06:18:34.276Z,23.89
2023-01-05T06:20:38.666Z,23.94
2023-01-05T06:22:43.005Z,23.97
2023-01-05T06:24:47.352Z,24
2023-01-05T06:26:51.696Z,24.02
2023-01-05T06:28:56.112Z,24.03
2023-01-05T06:31:00.394Z,24.06
2023-01-05T06:33:04.775Z,24.08
2023-01-05T06:35:09.069Z,24.13
2023-01-05T06:37:13.380Z,24.15
2023-01-05T06:39:17.612Z,24.2
2023-01-05T06:41:21.911Z,24.22
2023-01-05T06:43:26.264Z,24.24
2023-01-05T06:45:30.779Z,24.25
2023-01-05T06:47:35.362Z,24.24
2023-01-05T06:49:39.674Z,24.25
2023-01-05T06:51:43.990Z,24.26
2023-01-05T06:53:48.348Z,24.27
2023-01-05T06:55:52.711Z,24.3
2023-01-05T06:58:00.654Z,24.31
2023-01-05T07:00:05.334Z,24.3
2023-01-05T07:02:10.156Z,24.32
2023-01-05T07:04:14.684Z,24.33
2023-01-05T07:06:19.181Z,24.34
2023-01-05T07:08:23.509Z,24.34
2023-01-05T07:10:27.851Z,24.34
2023-01-05T07:12:32.349Z,24.35
2023-01-05T07:14:36.681Z,24.35
2023-01-05T07:16:41.099Z,24.36
2023-01-05T07:18:45.652Z,24.37
2023-01-05T07:20:49.960Z,24.4
2023-01-05T07:22:54.271Z,24.41
2023-01-05T07:24:58.671Z,24.42
2023-01-05T07:27:09.378Z,24.43
2023-01-05T07:29:14.116Z,24.45
2023-01-05T07:31:18.543Z,24.44
2023-01-05T07:33:23.060Z,24.45
2023-01-05T07:35:27.386Z,24.46
2023-01-05T07:37:31.829Z,24.47
2023-01-05T07:39:36.194Z,24.46
2023-01-05T07:41:40.515Z,24.46
2023-01-05T07:43:44.841Z,24.47
2023-01-05T07:45:49.236Z,24.48
2023-01-05T07:47:53.679Z,24.47
2023-01-05T07:49:57.931Z,24.49
2023-01-05T07:52:02.218Z,24.51
2023-01-05T07:54:06.580Z,24.52
2023-01-05T07:56:10.881Z,24.52
2023-01-05T07:58:15.300Z,24.5
2023-01-05T08:00:19.714Z,24.51
2023-01-05T08:02:24.233Z,24.5
2023-01-05T08:04:38.527Z,24.49
2023-01-05T08:06:43.140Z,24.48
2023-01-05T08:08:47.550Z,24.47
2023-01-05T08:10:51.923Z,24.45
2023-01-05T08:12:56.267Z,24.45
2023-01-05T08:15:00.595Z,24.42
2023-01-05T08:17:04.894Z,24.42
2023-01-05T08:19:11.248Z,24.39
2023-01-05T08:21:16.001Z,24.4
2023-01-05T08:23:25.524Z,24.4
2023-01-05T08:25:31.002Z,24.4
2023-01-05T08:27:35.422Z,24.39
2023-01-05T08:29:39.737Z,24.39
2023-01-05T08:31:44.159Z,24.39
2023-01-05T08:33:48.677Z,24.39
2023-01-05T08:35:53.026Z,24.38
2023-01-05T08:37:57.378Z,24.38
2023-01-05T08:40:01.779Z,24.38
2023-01-05T08:42:06.165Z,24.38
2023-01-05T08:44:10.509Z,24.38
2023-01-05T08:46:15.039Z,24.39
2023-01-05T08:48:19.673Z,24.39
2023-01-05T08:50:24.177Z,24.4
2023-01-05T08:52:28.572Z,24.39
2023-01-05T08:54:32.884Z,24.39
2023-01-05T08:56:39.190Z,24.39
2023-01-05T08:58:43.820Z,24.4
2023-01-05T09:00:48.233Z,24.4
2023-01-05T09:02:52.800Z,24.39
2023-01-05T09:04:57.558Z,24.4
2023-01-05T09:07:01.890Z,24.4
2023-01-05T09:09:06.234Z,24.4
2023-01-05T09:11:10.613Z,24.4
2023-01-05T09:13:15.001Z,24.4
2023-01-05T09:15:19.399Z,24.4
2023-01-05T09:17:23.763Z,24.41
2023-01-05T09:19:28.383Z,24.4
2023-01-05T09:21:32.728Z,24.4
2023-01-05T09:23:37.089Z,24.4
2023-01-05T09:25:41.468Z,24.42
2023-01-05T09:27:45.794Z,24.4
2023-01-05T09:29:50.114Z,24.41
2023-01-05T09:31:54.501Z,24.42
2023-01-05T09:33:58.835Z,24.43
2023-01-05T09:36:03.167Z,24.43
2023-01-05T09:38:07.553Z,24.43
2023-01-05T09:40:11.935Z,24.43
2023-01-05T09:42:16.351Z,24.43
2023-01-05T09:44:20.756Z,24.43
2023-01-05T09:46:25.223Z,24.44
2023-01-05T09:48:29.747Z,24.45
2023-01-05T09:50:34.217Z,24.44
2023-01-05T09:52:38.912Z,24.46
2023-01-05T09:54:43.307Z,24.46
2023-01-05T09:59:22.135Z,24.45
2023-01-05T10:01:26.484Z,24.46
2023-01-05T10:04:02.196Z,24.47
2023-01-05T10:06:08.717Z,24.47
2023-01-05T10:08:13.071Z,24.45
2023-01-05T10:10:17.410Z,24.39
2023-01-05T10:12:25.968Z,24.39
2023-01-05T10:14:30.356Z,24.38
2023-01-05T10:16:34.787Z,24.41
2023-01-05T10:18:39.540Z,24.4
2023-01-05T10:20:43.889Z,24.38
2023-01-05T10:22:48.299Z,24.4
2023-01-05T10:24:52.661Z,24.43
2023-01-05T10:27:24.007Z,24.43
2023-01-05T10:29:30.206Z,24.42
2023-01-05T10:31:34.609Z,24.41
2023-01-05T10:33:41.768Z,24.4
2023-01-05T10:36:04.241Z,24.38
2023-01-05T10:38:18.951Z,24.43
2023-01-05T10:40:23.322Z,24.44
2023-01-05T10:42:27.628Z,24.44
2023-01-05T10:44:31.996Z,24.38
2023-01-05T10:46:41.859Z,24.38
2023-01-05T10:48:55.811Z,24.32
2023-01-05T10:51:00.194Z,24.32
2023-01-05T10:53:04.517Z,24.31
2023-01-05T10:55:08.878Z,24.29
2023-01-05T10:57:13.217Z,24.26
2023-01-05T10:59:17.578Z,24.28
2023-01-05T11:01:22.429Z,24.26
2023-01-05T11:03:47.038Z,24.25
2023-01-05T11:06:37.766Z,24.24
2023-01-05T11:08:42.083Z,24.3
2023-01-05T11:10:46.580Z,24.29
2023-01-05T11:12:50.998Z,24.28
2023-01-05T11:14:58.678Z,24.28
2023-01-05T11:17:03.596Z,24.25
2023-01-05T11:19:08.082Z,24.25
2023-01-05T11:21:12.482Z,24.26
2023-01-05T11:23:16.905Z,24.25
2023-01-05T11:25:21.300Z,24.25
2023-01-05T11:27:25.636Z,24.25
2023-01-05T11:29:30.059Z,24.26
2023-01-05T11:31:34.419Z,24.24
2023-01-05T11:33:39.075Z,24.3
2023-01-05T11:35:43.519Z,24.29
2023-01-05T11:37:47.878Z,24.28
2023-01-05T11:39:52.268Z,24.27
2023-01-05T11:41:56.603Z,24.28
2023-01-05T11:44:01.000Z,24.3
2023-01-05T11:46:05.465Z,24.29
2023-01-05T11:48:10.122Z,24.29
2023-01-05T11:50:14.659Z,24.29
2023-01-05T11:52:19.209Z,24.29
2023-01-05T11:54:23.521Z,24.29
2023-01-05T11:56:27.914Z,24.3
2023-01-05T11:58:32.234Z,24.3
2023-01-05T12:00:36.670Z,24.34
2023-01-05T12:02:41.468Z,24.33
2023-01-05T12:04:46.108Z,24.34
2023-01-05T12:06:50.442Z,24.38
2023-01-05T12:08:54.827Z,24.41
2023-01-05T12:10:59.559Z,24.37
2023-01-05T12:13:03.936Z,24.34
2023-01-05T12:15:08.398Z,24.33
2023-01-05T12:17:12.837Z,24.37
2023-01-05T12:19:17.182Z,24.39
2023-01-05T12:21:21.555Z,24.45
2023-01-05T12:23:25.883Z,24.47
2023-01-05T12:25:30.298Z,24.49
2023-01-05T12:27:34.754Z,24.52
2023-01-05T12:35:07.797Z,24.61
2023-01-05T12:37:12.402Z,24.64
2023-01-05T12:39:16.751Z,24.67
2023-01-05T12:41:21.070Z,24.69
2023-01-05T12:43:25.491Z,24.69
2023-01-05T12:45:32.138Z,24.68
2023-01-05T12:47:36.698Z,24.72
2023-01-05T12:49:41.063Z,24.72
2023-01-05T12:51:45.450Z,24.74
2023-01-05T12:53:49.822Z,24.74
2023-01-05T12:55:54.307Z,24.76
2023-01-05T12:57:58.625Z,24.8
2023-01-05T13:00:02.950Z,24.8
2023-01-05T13:02:07.438Z,24.83
2023-01-05T13:04:12.253Z,24.84
2023-01-05T13:06:16.628Z,24.81
2023-01-05T13:08:21.034Z,24.81
2023-01-05T13:10:25.431Z,24.82
2023-01-05T13:12:29.925Z,24.84
2023-01-05T13:14:34.322Z,24.83
2023-01-05T13:16:38.875Z,24.81
2023-01-05T13:18:43.455Z,24.83
2023-01-05T13:20:47.799Z,24.86
2023-01-05T13:22:52.162Z,24.87
2023-01-05T13:24:56.417Z,24.89
2023-01-05T13:27:00.734Z,24.92
2023-01-05T13:29:05.028Z,24.93
2023-01-05T13:31:09.474Z,24.95
2023-01-05T13:33:14.011Z,24.93
2023-01-05T13:35:18.743Z,24.94
2023-01-05T13:37:23.237Z,24.94
2023-01-05T13:39:27.606Z,24.93
2023-01-05T13:41:31.961Z,24.91
2023-01-05T13:43:36.396Z,24.91
2023-01-05T13:45:40.850Z,24.9
2023-01-05T13:47:46.201Z,24.89
2023-01-05T13:49:51.663Z,24.89
2023-01-05T13:51:55.990Z,24.89
2023-01-05T13:54:00.336Z,24.88
2023-01-05T13:56:04.659Z,24.87
2023-01-05T13:58:09.116Z,24.85
2023-01-05T14:00:13.706Z,24.85
2023-01-05T14:02:18.184Z,24.84
2023-01-05T14:04:22.805Z,24.82
2023-01-05T14:06:27.119Z,24.83
2023-01-05T14:08:31.700Z,24.81
2023-01-05T14:10:36.027Z,24.81
2023-01-05T14:12:40.346Z,24.82
2023-01-05T14:14:44.700Z,24.81
2023-01-05T14:16:49.136Z,24.82
2023-01-05T14:18:53.536Z,24.81
2023-01-05T14:20:58.018Z,24.81
2023-01-05T14:23:02.364Z,24.83
2023-01-05T14:25:06.827Z,24.81
2023-01-05T14:27:11.191Z,24.77
2023-01-05T14:29:15.538Z,24.79
2023-01-05T14:31:19.930Z,24.79
2023-01-05T14:33:24.416Z,24.82
2023-01-05T14:35:28.855Z,24.81
2023-01-05T14:37:33.251Z,24.83
2023-01-05T14:39:37.586Z,24.85
2023-01-05T14:41:41.961Z,24.87
2023-01-05T14:43:46.380Z,24.89
2023-01-05T14:45:50.766Z,24.94
2023-01-05T14:47:57.825Z,24.98
2023-01-05T14:50:02.308Z,25
2023-01-05T14:52:06.911Z,24.99
2023-01-05T14:54:11.228Z,25.03
2023-01-05T14:56:15.539Z,25.07
2023-01-05T14:58:19.940Z,25.13
2023-01-05T15:00:24.319Z,25.21
2023-01-05T15:02:28.793Z,25.28
2023-01-05T15:04:33.164Z,25.33
2023-01-05T15:06:37.612Z,25.39
2023-01-05T15:08:42.119Z,25.42
2023-01-05T15:10:46.444Z,25.43
2023-01-05T15:12:52.349Z,25.42
2023-01-05T15:14:57.515Z,25.39
2023-01-05T15:17:01.948Z,25.37
2023-01-05T15:19:06.292Z,25.37
2023-01-05T15:21:10.667Z,25.37
2023-01-05T15:23:15.129Z,25.37
2023-01-05T15:25:19.485Z,25.38
2023-01-05T15:27:23.838Z,25.38
2023-01-05T15:29:28.260Z,25.38
2023-01-05T15:31:32.727Z,25.37
2023-01-05T15:33:37.170Z,25.34
2023-01-05T15:35:41.519Z,25.34
2023-01-05T15:37:46.082Z,25.34
2023-01-05T15:39:50.814Z,25.33
2023-01-05T15:41:55.553Z,25.32
2023-01-05T15:43:59.873Z,25.34
2023-01-05T15:46:04.329Z,25.36
2023-01-05T15:48:09.239Z,25.36
2023-01-05T15:50:14.091Z,25.33
2023-01-05T15:52:18.467Z,25.34
2023-01-05T15:54:22.868Z,25.32
2023-01-05T15:56:27.220Z,25.32
2023-01-05T15:58:31.575Z,25.32
2023-01-05T16:00:36.012Z,25.35
2023-01-05T16:02:40.421Z,25.35
2023-01-05T16:04:44.747Z,25.33
2023-01-05T16:06:49.157Z,25.33
2023-01-05T16:08:53.526Z,25.32
2023-01-05T16:10:57.885Z,25.32
2023-01-05T16:13:02.464Z,25.31
2023-01-05T16:15:06.811Z,25.31
2023-01-05T16:17:11.179Z,25.3
2023-01-05T16:19:15.682Z,25.29
2023-01-05T16:21:20.058Z,25.27
2023-01-05T16:23:24.455Z,25.26
2023-01-05T16:25:28.904Z,25.27
2023-01-05T16:27:33.274Z,25.29
2023-01-05T16:29:37.603Z,25.27
2023-01-05T16:31:41.955Z,25.25
2023-01-05T16:33:46.770Z,25.26
2023-01-05T16:35:51.222Z,25.24
2023-01-05T16:37:55.709Z,25.25
2023-01-05T16:40:00.119Z,25.25
2023-01-05T16:42:04.874Z,25.24
2023-01-05T16:44:09.283Z,25.24
2023-01-05T16:46:13.703Z,25.26
2023-01-05T16:48:21.393Z,25.24
2023-01-05T16:50:25.706Z,25.27
2023-01-05T16:52:38.932Z,25.27
2023-01-05T16:54:50.263Z,25.27
2023-01-05T16:56:56.264Z,25.28
2023-01-05T16:59:02.124Z,25.31
2023-01-05T17:01:06.640Z,25.31
2023-01-05T17:03:11.133Z,25.34
2023-01-05T17:05:15.665Z,25.33
2023-01-05T17:07:20.208Z,25.34
2023-01-05T17:09:24.628Z,25.35
2023-01-05T17:11:29.045Z,25.36
2023-01-05T17:13:33.492Z,25.4
2023-01-05T17:15:37.925Z,25.43
2023-01-05T17:17:42.320Z,25.45
2023-01-05T17:21:52.260Z,25.47
2023-01-05T17:23:56.637Z,25.47
2023-01-05T17:26:01.077Z,25.49
2023-01-05T17:28:05.592Z,25.5
2023-01-05T17:30:10.112Z,25.52
2023-01-05T17:32:14.529Z,25.49
2023-01-05T17:34:18.923Z,25.47
2023-01-05T17:36:23.422Z,25.48
2023-01-05T17:38:27.866Z,25.46
2023-01-05T17:40:32.299Z,25.44
2023-01-05T17:42:36.910Z,25.42
2023-01-05T17:44:41.353Z,25.4
2023-01-05T17:46:45.834Z,25.41
2023-01-05T17:48:50.349Z,25.43
2023-01-05T17:50:54.841Z,25.46
2023-01-05T17:52:59.279Z,25.46
2023-01-05T17:55:03.706Z,25.48
2023-01-05T17:59:12.538Z,25.52
2023-01-05T18:01:17.061Z,25.53
2023-01-05T18:03:21.785Z,25.56
2023-01-05T18:05:26.477Z,25.55
2023-01-05T18:07:30.862Z,25.47
2023-01-05T18:09:35.280Z,25.39
2023-01-05T18:11:39.701Z,25.34
2023-01-05T18:13:44.223Z,25.26
2023-01-05T18:15:48.944Z,25.19
2023-01-05T18:19:58.942Z,25.04
2023-01-05T18:22:03.417Z,25.01
2023-01-05T18:24:07.891Z,24.95
2023-01-05T18:26:12.350Z,24.9
2023-01-05T18:28:16.747Z,24.85
2023-01-05T18:30:21.156Z,24.81
2023-01-05T18:32:25.573Z,24.76
2023-01-05T18:34:30.076Z,24.74
2023-01-05T18:36:34.508Z,24.71
2023-01-05T18:38:39.095Z,24.7
2023-01-05T18:40:43.563Z,24.66
2023-01-05T18:42:48.181Z,24.67
2023-01-05T18:44:52.578Z,24.63
2023-01-05T18:46:56.968Z,24.6
2023-01-05T18:49:01.504Z,24.6
2023-01-05T18:51:05.927Z,24.59
2023-01-05T18:53:10.452Z,24.59
2023-01-05T18:55:14.988Z,24.56
2023-01-05T18:57:19.574Z,24.53
2023-01-05T18:59:24.511Z,24.54
2023-01-05T19:01:28.995Z,24.51
2023-01-05T19:03:33.506Z,24.48
2023-01-05T19:05:38.020Z,24.46
2023-01-05T19:07:42.432Z,24.43
2023-01-05T19:09:46.883Z,24.4
2023-01-05T19:11:51.334Z,24.43
2023-01-05T19:13:55.741Z,24.42
2023-01-05T19:16:00.255Z,24.43
2023-01-05T19:18:04.855Z,24.42
2023-01-05T19:20:09.242Z,24.41
2023-01-05T19:22:13.629Z,24.4
2023-01-05T19:24:18.140Z,24.37
2023-01-05T19:26:22.637Z,24.38
2023-01-05T19:28:27.058Z,24.35
2023-01-05T19:30:31.428Z,24.35
2023-01-05T19:32:35.950Z,24.37
2023-01-05T19:34:40.471Z,24.35
2023-01-05T19:36:44.907Z,24.29
2023-01-05T19:38:49.300Z,24.29
2023-01-05T19:40:53.802Z,24.24
2023-01-05T19:42:58.200Z,24.18
2023-01-05T19:45:02.628Z,24.16
2023-01-05T19:47:07.041Z,24.15
2023-01-05T19:49:11.432Z,24.14
2023-01-05T19:51:15.863Z,24.16
2023-01-05T19:53:20.289Z,24.13
2023-01-05T19:55:24.746Z,24.07
2023-01-05T19:57:29.185Z,24.02
2023-01-05T19:59:33.620Z,24
2023-01-05T20:01:38.214Z,23.97
2023-01-05T20:03:42.783Z,23.96
2023-01-05T20:05:47.216Z,23.94
2023-01-05T20:07:51.631Z,23.91
2023-01-05T20:09:56.049Z,23.88
2023-01-05T20:12:13.110Z,23.84
2023-01-05T20:14:19.098Z,23.83
2023-01-05T20:16:23.651Z,23.79
2023-01-05T20:18:28.261Z,23.78
2023-01-05T20:20:32.664Z,23.78
2023-01-05T20:22:37.102Z,23.78
2023-01-05T20:24:41.541Z,23.77
2023-01-05T20:26:46.175Z,23.78
2023-01-05T20:28:50.600Z,23.81
2023-01-05T20:30:54.985Z,23.84
2023-01-05T20:32:59.559Z,23.87
2023-01-05T20:35:03.970Z,23.89
2023-01-05T20:37:08.435Z,23.91
2023-01-05T20:39:12.835Z,23.92
2023-01-05T20:41:17.251Z,23.93
2023-01-05T20:43:21.692Z,23.95
2023-01-05T20:45:26.062Z,23.96
2023-01-05T20:47:36.672Z,23.94
2023-01-05T20:49:51.399Z,23.94
2023-01-05T20:51:55.846Z,23.93
2023-01-05T20:54:00.296Z,23.94
2023-01-05T20:56:04.706Z,23.93
2023-01-05T20:58:09.371Z,23.92
2023-01-05T21:00:13.899Z,23.93
2023-01-05T21:02:23.909Z,23.91
2023-01-05T21:04:28.573Z,23.92
2023-01-05T21:06:33.087Z,23.92
2023-01-05T21:08:37.639Z,23.93
2023-01-05T21:10:42.145Z,23.91
2023-01-05T21:12:46.563Z,23.89
2023-01-05T21:14:51.148Z,23.88
2023-01-05T21:16:55.579Z,23.86
2023-01-05T21:19:01.374Z,23.91
2023-01-05T21:21:05.922Z,23.97
2023-01-05T21:23:10.412Z,24.06
2023-01-05T21:25:14.865Z,24.13
2023-01-05T21:27:19.457Z,24.19
2023-01-05T21:29:23.852Z,24.26
2023-01-05T21:31:28.491Z,24.34
2023-01-05T21:33:33.140Z,24.44
2023-01-05T21:35:37.660Z,24.5
2023-01-05T21:37:42.113Z,24.55
2023-01-05T21:39:46.544Z,24.62
2023-01-05T21:41:50.984Z,24.66
2023-01-05T21:43:55.559Z,24.69
2023-01-05T21:45:59.995Z,24.72
2023-01-05T21:48:04.546Z,24.78
2023-01-05T21:50:09.062Z,24.83
2023-01-05T21:52:13.562Z,24.87
2023-01-05T21:54:17.955Z,24.89
2023-01-05T21:56:22.384Z,24.93
2023-01-05T21:58:26.801Z,24.94
2023-01-05T22:00:31.201Z,24.97
2023-01-05T22:02:35.652Z,25
2023-01-05T22:04:40.151Z,25.03
2023-01-05T22:06:44.654Z,25.06
2023-01-05T22:08:49.152Z,25.07
2023-01-05T22:10:53.527Z,25.07
2023-01-05T22:12:57.986Z,25.1
2023-01-05T22:15:02.425Z,25.11
2023-01-05T22:17:06.905Z,25.13
2023-01-05T22:19:11.384Z,25.15
2023-01-05T22:21:15.852Z,25.16
2023-01-05T22:23:20.362Z,25.19
2023-01-05T22:25:24.803Z,25.2
2023-01-05T22:27:29.260Z,25.21
2023-01-05T22:29:33.698Z,25.23
2023-01-05T22:31:38.211Z,25.23
2023-01-05T22:33:42.798Z,25.21
2023-01-05T22:35:47.196Z,25.23
2023-01-05T22:37:51.616Z,25.22
2023-01-05T22:39:56.143Z,25.21
2023-01-05T22:42:00.583Z,25.21
2023-01-05T22:44:05.167Z,25.22
2023-01-05T22:46:09.677Z,25.21
2023-01-05T22:48:14.360Z,25.21
2023-01-05T22:50:18.769Z,25.16
2023-01-05T22:52:23.211Z,25.04
2023-01-05T22:54:27.585Z,24.92
2023-01-05T22:56:32.058Z,24.81
2023-01-05T22:58:36.520Z,24.72
2023-01-05T23:00:40.905Z,24.63
2023-01-05T23:02:45.586Z,24.56
2023-01-05T23:04:50.010Z,24.51
2023-01-05T23:06:54.458Z,24.44
2023-01-05T23:08:58.862Z,24.36
2023-01-05T23:11:03.266Z,24.3
2023-01-05T23:13:07.707Z,24.24
2023-01-05T23:15:12.152Z,24.2
2023-01-05T23:17:16.628Z,24.15
2023-01-05T23:19:21.033Z,24.12
2023-01-05T23:21:25.443Z,24.1
2023-01-05T23:23:29.915Z,24.07
2023-01-05T23:25:34.334Z,24.06
2023-01-05T23:27:38.852Z,24.01
2023-01-05T23:29:43.245Z,24
2023-01-05T23:31:47.629Z,23.96
2023-01-05T23:33:52.052Z,23.95
2023-01-05T23:35:56.487Z,23.96
2023-01-05T23:38:00.911Z,23.9
2023-01-05T23:40:05.367Z,23.89
2023-01-05T23:42:09.965Z,23.84
2023-01-05T23:44:14.396Z,23.8
2023-01-05T23:46:18.848Z,23.79
2023-01-05T23:48:23.725Z,23.77
2023-01-05T23:50:28.148Z,23.76
2023-01-05T23:52:32.548Z,23.73
2023-01-05T23:54:36.961Z,23.73
2023-01-05T23:56:41.363Z,23.69
2023-01-05T23:58:45.757Z,23.67
